sensor_id;sensor_type;location;lat;lon;timestamp;P1;durP1;ratioP1;P2;durP2;ratioP2
1204;SDS011;592;48.764;9.174;2023-04-03T00:01:25;10.90;;;3.90;;
1204;SDS011;592;48.764;9.174;2023-04-03T00:03:51;6.20;;;3.83;;
1204;SDS011;592;48.764;9.174;2023-04-03T00:06:18;6.10;;;3.90;;
1204;SDS011;592;48.764;9.174;2023-04-03T00:08:46;7.47;;;4.37;;
1204;SDS011;592;48.764;9.174;2023-04-03T00:11:13;6.43;;;3.43;;
1204;SDS011;592;48.764;9.174;2023-04-03T00:13:40;7.10;;;4.90;;
1204;SDS011;592;48.764;9.174;2023-04-03T00:16:07;11.10;;;4.20;;
1204;SDS011;592;48.764;9.174;2023-04-03T00:18:34;5.90;;;3.87;;
1204;SDS011;592;48.764;9.174;2023-04-03T00:21:01;6.20;;;3.87;;
1204;SDS011;592;48.764;9.174;2023-04-03T00:23:28;7.87;;;4.00;;
1204;SDS011;592;48.764;9.174;2023-04-03T00:25:56;6.63;;;3.90;;
1204;SDS011;592;48.764;9.174;2023-04-03T00:28:23;6.90;;;4.23;;
1204;SDS011;592;48.764;9.174;2023-04-03T00:30:50;7.70;;;4.20;;
1204;SDS011;592;48.764;9.174;2023-04-03T00:33:17;7.50;;;4.30;;
1204;SDS011;592;48.764;9.174;2023-04-03T00:35:46;6.50;;;4.00;;
1204;SDS011;592;48.764;9.174;2023-04-03T00:38:13;6.50;;;3.80;;
1204;SDS011;592;48.764;9.174;2023-04-03T00:40:41;5.93;;;4.00;;
1204;SDS011;592;48.764;9.174;2023-04-03T00:43:11;7.83;;;4.10;;
1204;SDS011;592;48.764;9.174;2023-04-03T00:45:40;5.77;;;3.70;;
1204;SDS011;592;48.764;9.174;2023-04-03T00:48:10;5.93;;;3.63;;
1204;SDS011;592;48.764;9.174;2023-04-03T00:50:40;6.70;;;3.97;;
1204;SDS011;592;48.764;9.174;2023-04-03T00:53:09;7.00;;;4.30;;
1204;SDS011;592;48.764;9.174;2023-04-03T00:55:38;7.60;;;4.20;;
1204;SDS011;592;48.764;9.174;2023-04-03T00:58:06;7.93;;;4.37;;
1204;SDS011;592;48.764;9.174;2023-04-03T01:00:35;6.80;;;4.20;;
1204;SDS011;592;48.764;9.174;2023-04-03T01:03:03;6.00;;;4.10;;
1204;SDS011;592;48.764;9.174;2023-04-03T01:05:30;7.80;;;4.37;;
1204;SDS011;592;48.764;9.174;2023-04-03T01:07:56;7.00;;;4.10;;
1204;SDS011;592;48.764;9.174;2023-04-03T01:10:24;7.10;;;4.13;;
1204;SDS011;592;48.764;9.174;2023-04-03T01:12:51;6.80;;;4.63;;
1204;SDS011;592;48.764;9.174;2023-04-03T01:15:19;6.10;;;4.10;;
1204;SDS011;592;48.764;9.174;2023-04-03T01:17:49;6.00;;;3.87;;
1204;SDS011;592;48.764;9.174;2023-04-03T01:20:31;6.70;;;4.00;;
1204;SDS011;592;48.764;9.174;2023-04-03T01:23:45;10.40;;;4.90;;
1204;SDS011;592;48.764;9.174;2023-04-03T01:26:24;4.90;;;3.40;;
1204;SDS011;592;48.764;9.174;2023-04-03T01:28:53;6.37;;;4.10;;
1204;SDS011;592;48.764;9.174;2023-04-03T01:31:22;7.60;;;4.10;;
1204;SDS011;592;48.764;9.174;2023-04-03T01:33:52;6.47;;;4.40;;
1204;SDS011;592;48.764;9.174;2023-04-03T01:36:20;7.37;;;4.17;;
1204;SDS011;592;48.764;9.174;2023-04-03T01:38:49;8.13;;;4.47;;
1204;SDS011;592;48.764;9.174;2023-04-03T01:41:16;6.97;;;4.20;;
1204;SDS011;592;48.764;9.174;2023-04-03T01:43:43;7.37;;;4.47;;
1204;SDS011;592;48.764;9.174;2023-04-03T01:46:10;5.93;;;4.10;;
1204;SDS011;592;48.764;9.174;2023-04-03T01:48:37;6.97;;;4.27;;
1204;SDS011;592;48.764;9.174;2023-04-03T01:51:05;7.10;;;3.90;;
1204;SDS011;592;48.764;9.174;2023-04-03T01:53:32;8.80;;;4.10;;
1204;SDS011;592;48.764;9.174;2023-04-03T01:55:59;7.43;;;4.20;;
1204;SDS011;592;48.764;9.174;2023-04-03T01:58:26;7.27;;;4.03;;
1204;SDS011;592;48.764;9.174;2023-04-03T02:00:52;6.37;;;4.20;;
1204;SDS011;592;48.764;9.174;2023-04-03T02:03:19;6.07;;;4.10;;
1204;SDS011;592;48.764;9.174;2023-04-03T02:05:46;10.50;;;4.47;;
1204;SDS011;592;48.764;9.174;2023-04-03T02:08:14;6.40;;;4.43;;
1204;SDS011;592;48.764;9.174;2023-04-03T02:10:43;5.50;;;4.00;;
1204;SDS011;592;48.764;9.174;2023-04-03T02:13:09;7.60;;;4.37;;
1204;SDS011;592;48.764;9.174;2023-04-03T02:15:37;7.87;;;4.17;;
1204;SDS011;592;48.764;9.174;2023-04-03T02:18:04;6.13;;;3.90;;
1204;SDS011;592;48.764;9.174;2023-04-03T02:20:31;8.50;;;4.47;;
1204;SDS011;592;48.764;9.174;2023-04-03T02:22:57;6.30;;;3.90;;
1204;SDS011;592;48.764;9.174;2023-04-03T02:25:26;6.80;;;4.20;;
1204;SDS011;592;48.764;9.174;2023-04-03T02:27:53;9.37;;;4.83;;
1204;SDS011;592;48.764;9.174;2023-04-03T02:30:20;6.20;;;4.20;;
1204;SDS011;592;48.764;9.174;2023-04-03T02:32:47;7.90;;;4.50;;
1204;SDS011;592;48.764;9.174;2023-04-03T02:35:13;6.83;;;3.50;;
1204;SDS011;592;48.764;9.174;2023-04-03T02:37:40;6.13;;;3.87;;
1204;SDS011;592;48.764;9.174;2023-04-03T02:40:08;6.83;;;4.13;;
1204;SDS011;592;48.764;9.174;2023-04-03T02:42:37;6.80;;;4.03;;
1204;SDS011;592;48.764;9.174;2023-04-03T02:45:04;5.50;;;3.87;;
1204;SDS011;592;48.764;9.174;2023-04-03T02:47:32;6.20;;;4.00;;
1204;SDS011;592;48.764;9.174;2023-04-03T02:49:59;7.60;;;4.37;;
1204;SDS011;592;48.764;9.174;2023-04-03T02:52:25;6.23;;;3.83;;
1204;SDS011;592;48.764;9.174;2023-04-03T02:54:52;5.93;;;3.80;;
1204;SDS011;592;48.764;9.174;2023-04-03T02:57:18;6.70;;;3.97;;
1204;SDS011;592;48.764;9.174;2023-04-03T02:59:47;6.10;;;3.63;;
1204;SDS011;592;48.764;9.174;2023-04-03T03:02:13;5.23;;;3.70;;
1204;SDS011;592;48.764;9.174;2023-04-03T03:04:40;9.03;;;4.47;;
1204;SDS011;592;48.764;9.174;2023-04-03T03:07:07;5.87;;;4.10;;
1204;SDS011;592;48.764;9.174;2023-04-03T03:09:34;6.70;;;4.17;;
1204;SDS011;592;48.764;9.174;2023-04-03T03:12:01;5.40;;;3.70;;
1204;SDS011;592;48.764;9.174;2023-04-03T03:14:27;5.30;;;3.70;;
1204;SDS011;592;48.764;9.174;2023-04-03T03:16:55;5.67;;;3.80;;
1204;SDS011;592;48.764;9.174;2023-04-03T03:19:22;5.57;;;4.13;;
1204;SDS011;592;48.764;9.174;2023-04-03T03:21:49;6.90;;;4.00;;
1204;SDS011;592;48.764;9.174;2023-04-03T03:24:16;5.80;;;3.90;;
1204;SDS011;592;48.764;9.174;2023-04-03T03:26:42;5.57;;;3.60;;
1204;SDS011;592;48.764;9.174;2023-04-03T03:29:09;6.23;;;4.03;;
1204;SDS011;592;48.764;9.174;2023-04-03T03:31:36;4.90;;;3.57;;
1204;SDS011;592;48.764;9.174;2023-04-03T03:34:04;6.70;;;4.20;;
1204;SDS011;592;48.764;9.174;2023-04-03T03:36:31;7.83;;;3.93;;
1204;SDS011;592;48.764;9.174;2023-04-03T03:38:57;6.20;;;3.70;;
1204;SDS011;592;48.764;9.174;2023-04-03T03:41:24;6.37;;;4.20;;
1204;SDS011;592;48.764;9.174;2023-04-03T03:43:51;7.00;;;4.23;;
1204;SDS011;592;48.764;9.174;2023-04-03T03:46:18;8.73;;;4.20;;
1204;SDS011;592;48.764;9.174;2023-04-03T03:48:45;7.50;;;4.47;;
1204;SDS011;592;48.764;9.174;2023-04-03T03:51:13;8.10;;;4.13;;
1204;SDS011;592;48.764;9.174;2023-04-03T03:53:40;6.40;;;4.23;;
1204;SDS011;592;48.764;9.174;2023-04-03T03:56:06;6.60;;;3.60;;
1204;SDS011;592;48.764;9.174;2023-04-03T03:58:33;8.93;;;4.00;;
1204;SDS011;592;48.764;9.174;2023-04-03T04:01:01;7.30;;;4.40;;
1204;SDS011;592;48.764;9.174;2023-04-03T04:03:28;6.33;;;4.07;;
1204;SDS011;592;48.764;9.174;2023-04-03T04:05:54;5.30;;;3.40;;
1204;SDS011;592;48.764;9.174;2023-04-03T04:08:23;7.33;;;4.20;;
1204;SDS011;592;48.764;9.174;2023-04-03T04:10:50;6.60;;;3.83;;
1204;SDS011;592;48.764;9.174;2023-04-03T04:13:17;5.80;;;3.97;;
1204;SDS011;592;48.764;9.174;2023-04-03T04:15:43;10.33;;;4.00;;
1204;SDS011;592;48.764;9.174;2023-04-03T04:18:10;6.50;;;3.83;;
1204;SDS011;592;48.764;9.174;2023-04-03T04:20:37;5.70;;;3.83;;
1204;SDS011;592;48.764;9.174;2023-04-03T04:23:04;10.10;;;3.60;;
1204;SDS011;592;48.764;9.174;2023-04-03T04:25:32;7.43;;;4.03;;
1204;SDS011;592;48.764;9.174;2023-04-03T04:27:59;7.10;;;4.07;;
1204;SDS011;592;48.764;9.174;2023-04-03T04:30:25;7.77;;;4.27;;
1204;SDS011;592;48.764;9.174;2023-04-03T04:32:52;8.13;;;4.77;;
1204;SDS011;592;48.764;9.174;2023-04-03T04:35:19;5.70;;;3.67;;
1204;SDS011;592;48.764;9.174;2023-04-03T04:37:45;7.00;;;4.80;;
1204;SDS011;592;48.764;9.174;2023-04-03T04:40:12;8.37;;;3.90;;
1204;SDS011;592;48.764;9.174;2023-04-03T04:42:40;6.73;;;4.20;;
1204;SDS011;592;48.764;9.174;2023-04-03T04:45:07;6.37;;;3.90;;
1204;SDS011;592;48.764;9.174;2023-04-03T04:47:34;5.90;;;3.37;;
1204;SDS011;592;48.764;9.174;2023-04-03T04:50:01;5.67;;;3.47;;
1204;SDS011;592;48.764;9.174;2023-04-03T04:52:28;6.23;;;4.23;;
1204;SDS011;592;48.764;9.174;2023-04-03T04:54:55;6.83;;;4.23;;
1204;SDS011;592;48.764;9.174;2023-04-03T04:57:21;5.60;;;4.00;;
1204;SDS011;592;48.764;9.174;2023-04-03T04:59:50;7.53;;;3.30;;
1204;SDS011;592;48.764;9.174;2023-04-03T05:02:16;6.40;;;3.43;;
1204;SDS011;592;48.764;9.174;2023-04-03T05:04:43;6.13;;;3.77;;
1204;SDS011;592;48.764;9.174;2023-04-03T05:07:10;6.37;;;3.50;;
1204;SDS011;592;48.764;9.174;2023-04-03T05:09:37;5.07;;;3.30;;
1204;SDS011;592;48.764;9.174;2023-04-03T05:12:06;5.97;;;3.13;;
1204;SDS011;592;48.764;9.174;2023-04-03T05:14:33;5.50;;;3.33;;
1204;SDS011;592;48.764;9.174;2023-04-03T05:17:01;6.07;;;3.50;;
1204;SDS011;592;48.764;9.174;2023-04-03T05:19:28;5.83;;;3.30;;
1204;SDS011;592;48.764;9.174;2023-04-03T05:22:11;5.67;;;3.47;;
1204;SDS011;592;48.764;9.174;2023-04-03T05:24:38;8.50;;;3.80;;
1204;SDS011;592;48.764;9.174;2023-04-03T05:27:05;7.87;;;3.30;;
1204;SDS011;592;48.764;9.174;2023-04-03T05:29:31;8.17;;;3.90;;
1204;SDS011;592;48.764;9.174;2023-04-03T05:31:58;9.00;;;3.50;;
1204;SDS011;592;48.764;9.174;2023-04-03T05:34:25;6.67;;;3.77;;
1204;SDS011;592;48.764;9.174;2023-04-03T05:36:51;6.67;;;3.30;;
1204;SDS011;592;48.764;9.174;2023-04-03T05:39:19;4.87;;;3.03;;
1204;SDS011;592;48.764;9.174;2023-04-03T05:41:47;5.77;;;3.30;;
1204;SDS011;592;48.764;9.174;2023-04-03T05:44:14;5.70;;;3.67;;
1204;SDS011;592;48.764;9.174;2023-04-03T05:46:41;5.13;;;3.47;;
1204;SDS011;592;48.764;9.174;2023-04-03T05:49:08;5.87;;;3.93;;
1204;SDS011;592;48.764;9.174;2023-04-03T05:51:35;6.13;;;3.97;;
1204;SDS011;592;48.764;9.174;2023-04-03T05:54:03;11.73;;;3.60;;
1204;SDS011;592;48.764;9.174;2023-04-03T05:56:36;5.57;;;3.53;;
1204;SDS011;592;48.764;9.174;2023-04-03T05:59:03;5.83;;;4.00;;
1204;SDS011;592;48.764;9.174;2023-04-03T06:01:30;6.30;;;3.60;;
1204;SDS011;592;48.764;9.174;2023-04-03T06:03:56;6.47;;;3.97;;
1204;SDS011;592;48.764;9.174;2023-04-03T06:06:23;6.93;;;3.63;;
1204;SDS011;592;48.764;9.174;2023-04-03T06:08:50;5.97;;;3.67;;
1204;SDS011;592;48.764;9.174;2023-04-03T06:11:18;9.17;;;4.40;;
1204;SDS011;592;48.764;9.174;2023-04-03T06:13:47;6.00;;;3.67;;
1204;SDS011;592;48.764;9.174;2023-04-03T06:16:14;5.10;;;3.57;;
1204;SDS011;592;48.764;9.174;2023-04-03T06:18:43;5.87;;;3.60;;
1204;SDS011;592;48.764;9.174;2023-04-03T06:21:09;6.53;;;3.60;;
1204;SDS011;592;48.764;9.174;2023-04-03T06:23:36;5.27;;;3.23;;
1204;SDS011;592;48.764;9.174;2023-04-03T06:26:03;7.23;;;4.00;;
1204;SDS011;592;48.764;9.174;2023-04-03T06:28:30;7.90;;;3.30;;
1204;SDS011;592;48.764;9.174;2023-04-03T06:30:58;7.17;;;4.00;;
1204;SDS011;592;48.764;9.174;2023-04-03T06:33:25;6.40;;;3.83;;
1204;SDS011;592;48.764;9.174;2023-04-03T06:35:55;8.90;;;4.00;;
1204;SDS011;592;48.764;9.174;2023-04-03T06:38:23;7.63;;;4.00;;
1204;SDS011;592;48.764;9.174;2023-04-03T06:40:49;6.83;;;3.60;;
1204;SDS011;592;48.764;9.174;2023-04-03T06:43:16;5.97;;;3.77;;
1204;SDS011;592;48.764;9.174;2023-04-03T06:45:43;7.27;;;3.60;;
1204;SDS011;592;48.764;9.174;2023-04-03T06:48:11;8.10;;;3.50;;
1204;SDS011;592;48.764;9.174;2023-04-03T06:50:38;6.67;;;3.90;;
1204;SDS011;592;48.764;9.174;2023-04-03T06:53:05;6.00;;;3.80;;
1204;SDS011;592;48.764;9.174;2023-04-03T06:55:32;7.30;;;4.10;;
1204;SDS011;592;48.764;9.174;2023-04-03T06:57:59;7.50;;;4.60;;
1204;SDS011;592;48.764;9.174;2023-04-03T07:00:25;9.03;;;4.20;;
1204;SDS011;592;48.764;9.174;2023-04-03T07:02:52;6.70;;;3.70;;
1204;SDS011;592;48.764;9.174;2023-04-03T07:05:22;6.20;;;4.00;;
1204;SDS011;592;48.764;9.174;2023-04-03T07:07:49;7.50;;;4.17;;
1204;SDS011;592;48.764;9.174;2023-04-03T07:10:16;7.27;;;3.73;;
1204;SDS011;592;48.764;9.174;2023-04-03T07:12:43;7.10;;;3.70;;
1204;SDS011;592;48.764;9.174;2023-04-03T07:15:10;8.90;;;4.10;;
1204;SDS011;592;48.764;9.174;2023-04-03T07:17:37;7.33;;;4.10;;
1204;SDS011;592;48.764;9.174;2023-04-03T07:20:05;8.50;;;4.30;;
1204;SDS011;592;48.764;9.174;2023-04-03T07:22:34;8.40;;;3.90;;
1204;SDS011;592;48.764;9.174;2023-04-03T07:25:01;6.07;;;3.93;;
1204;SDS011;592;48.764;9.174;2023-04-03T07:27:28;6.00;;;3.60;;
1204;SDS011;592;48.764;9.174;2023-04-03T07:29:55;7.60;;;3.57;;
1204;SDS011;592;48.764;9.174;2023-04-03T07:32:22;6.97;;;3.80;;
1204;SDS011;592;48.764;9.174;2023-04-03T07:34:48;6.97;;;3.30;;
1204;SDS011;592;48.764;9.174;2023-04-03T07:37:15;7.27;;;3.80;;
1204;SDS011;592;48.764;9.174;2023-04-03T07:39:44;8.30;;;3.73;;
1204;SDS011;592;48.764;9.174;2023-04-03T07:42:11;9.87;;;4.37;;
1204;SDS011;592;48.764;9.174;2023-04-03T07:44:38;7.73;;;3.40;;
1204;SDS011;592;48.764;9.174;2023-04-03T07:47:05;8.57;;;4.17;;
1204;SDS011;592;48.764;9.174;2023-04-03T07:49:32;6.57;;;3.50;;
1204;SDS011;592;48.764;9.174;2023-04-03T07:52:02;7.50;;;4.30;;
1204;SDS011;592;48.764;9.174;2023-04-03T07:54:30;8.03;;;4.10;;
1204;SDS011;592;48.764;9.174;2023-04-03T07:56:58;5.53;;;3.47;;
1204;SDS011;592;48.764;9.174;2023-04-03T07:59:25;6.33;;;3.27;;
1204;SDS011;592;48.764;9.174;2023-04-03T08:01:52;6.53;;;3.73;;
1204;SDS011;592;48.764;9.174;2023-04-03T08:04:18;5.70;;;3.63;;
1204;SDS011;592;48.764;9.174;2023-04-03T08:06:45;7.33;;;3.43;;
1204;SDS011;592;48.764;9.174;2023-04-03T08:09:12;9.17;;;3.90;;
1204;SDS011;592;48.764;9.174;2023-04-03T08:11:39;6.30;;;3.73;;
1204;SDS011;592;48.764;9.174;2023-04-03T08:14:07;7.40;;;4.13;;
1204;SDS011;592;48.764;9.174;2023-04-03T08:16:40;8.73;;;3.90;;
1204;SDS011;592;48.764;9.174;2023-04-03T08:19:07;10.23;;;3.90;;
1204;SDS011;592;48.764;9.174;2023-04-03T08:21:35;6.00;;;3.90;;
1204;SDS011;592;48.764;9.174;2023-04-03T08:24:02;7.13;;;4.40;;
1204;SDS011;592;48.764;9.174;2023-04-03T08:26:29;18.13;;;4.67;;
1204;SDS011;592;48.764;9.174;2023-04-03T08:28:56;13.50;;;5.30;;
1204;SDS011;592;48.764;9.174;2023-04-03T08:31:24;7.60;;;3.97;;
1204;SDS011;592;48.764;9.174;2023-04-03T08:33:51;8.40;;;4.40;;
1204;SDS011;592;48.764;9.174;2023-04-03T08:36:18;6.03;;;4.03;;
1204;SDS011;592;48.764;9.174;2023-04-03T08:38:46;6.67;;;4.00;;
1204;SDS011;592;48.764;9.174;2023-04-03T08:41:15;6.60;;;4.13;;
1204;SDS011;592;48.764;9.174;2023-04-03T08:43:53;10.93;;;4.63;;
1204;SDS011;592;48.764;9.174;2023-04-03T08:46:26;7.87;;;4.00;;
1204;SDS011;592;48.764;9.174;2023-04-03T08:49:04;14.40;;;5.60;;
1204;SDS011;592;48.764;9.174;2023-04-03T08:51:42;8.33;;;4.20;;
1204;SDS011;592;48.764;9.174;2023-04-03T08:54:14;9.40;;;4.97;;
1204;SDS011;592;48.764;9.174;2023-04-03T08:56:51;9.07;;;4.40;;
1204;SDS011;592;48.764;9.174;2023-04-03T08:59:19;6.20;;;4.30;;
1204;SDS011;592;48.764;9.174;2023-04-03T09:01:53;9.27;;;5.00;;
1204;SDS011;592;48.764;9.174;2023-04-03T09:04:22;7.90;;;4.50;;
1204;SDS011;592;48.764;9.174;2023-04-03T09:06:49;6.10;;;4.00;;
1204;SDS011;592;48.764;9.174;2023-04-03T09:09:24;8.73;;;4.47;;
1204;SDS011;592;48.764;9.174;2023-04-03T09:12:00;7.80;;;4.00;;
1204;SDS011;592;48.764;9.174;2023-04-03T09:14:36;5.33;;;3.83;;
1204;SDS011;592;48.764;9.174;2023-04-03T09:17:12;6.80;;;4.00;;
1204;SDS011;592;48.764;9.174;2023-04-03T09:19:46;8.23;;;4.03;;
1204;SDS011;592;48.764;9.174;2023-04-03T09:22:18;6.70;;;4.23;;
1204;SDS011;592;48.764;9.174;2023-04-03T09:24:50;6.40;;;3.70;;
1204;SDS011;592;48.764;9.174;2023-04-03T09:27:23;10.37;;;3.50;;
1204;SDS011;592;48.764;9.174;2023-04-03T09:29:49;6.90;;;3.67;;
1204;SDS011;592;48.764;9.174;2023-04-03T09:32:24;5.53;;;3.83;;
1204;SDS011;592;48.764;9.174;2023-04-03T09:34:53;6.93;;;3.80;;
1204;SDS011;592;48.764;9.174;2023-04-03T09:37:36;6.73;;;4.17;;
1204;SDS011;592;48.764;9.174;2023-04-03T09:40:05;8.13;;;4.30;;
1204;SDS011;592;48.764;9.174;2023-04-03T09:42:53;6.90;;;4.03;;
1204;SDS011;592;48.764;9.174;2023-04-03T09:45:22;8.00;;;3.80;;
1204;SDS011;592;48.764;9.174;2023-04-03T09:47:55;4.80;;;3.43;;
1204;SDS011;592;48.764;9.174;2023-04-03T09:50:31;8.00;;;4.10;;
1204;SDS011;592;48.764;9.174;2023-04-03T09:52:59;5.40;;;3.80;;
1204;SDS011;592;48.764;9.174;2023-04-03T09:55:31;6.97;;;3.77;;
1204;SDS011;592;48.764;9.174;2023-04-03T09:58:24;5.90;;;3.30;;
1204;SDS011;592;48.764;9.174;2023-04-03T10:00:54;7.57;;;3.97;;
1204;SDS011;592;48.764;9.174;2023-04-03T10:03:25;5.77;;;3.30;;
1204;SDS011;592;48.764;9.174;2023-04-03T10:05:55;6.90;;;3.83;;
1204;SDS011;592;48.764;9.174;2023-04-03T10:08:24;7.90;;;3.37;;
1204;SDS011;592;48.764;9.174;2023-04-03T10:11:06;7.00;;;3.87;;
1204;SDS011;592;48.764;9.174;2023-04-03T10:13:49;8.00;;;3.97;;
1204;SDS011;592;48.764;9.174;2023-04-03T10:16:18;5.30;;;3.77;;
1204;SDS011;592;48.764;9.174;2023-04-03T10:18:49;6.83;;;3.83;;
1204;SDS011;592;48.764;9.174;2023-04-03T10:21:32;6.33;;;3.77;;
1204;SDS011;592;48.764;9.174;2023-04-03T10:24:09;5.80;;;2.97;;
1204;SDS011;592;48.764;9.174;2023-04-03T10:26:41;7.10;;;3.20;;
1204;SDS011;592;48.764;9.174;2023-04-03T10:29:19;7.23;;;3.30;;
1204;SDS011;592;48.764;9.174;2023-04-03T10:32:03;5.10;;;3.47;;
1204;SDS011;592;48.764;9.174;2023-04-03T10:34:44;9.27;;;3.70;;
1204;SDS011;592;48.764;9.174;2023-04-03T10:37:13;6.10;;;3.50;;
1204;SDS011;592;48.764;9.174;2023-04-03T10:39:49;5.80;;;3.57;;
1204;SDS011;592;48.764;9.174;2023-04-03T10:42:22;5.20;;;3.40;;
1204;SDS011;592;48.764;9.174;2023-04-03T10:47:48;6.00;;;3.40;;
1204;SDS011;592;48.764;9.174;2023-04-03T10:50:31;6.30;;;3.83;;
1204;SDS011;592;48.764;9.174;2023-04-03T10:53:07;6.70;;;3.70;;
1204;SDS011;592;48.764;9.174;2023-04-03T10:55:41;9.47;;;3.80;;
1204;SDS011;592;48.764;9.174;2023-04-03T10:58:13;5.60;;;3.37;;
1204;SDS011;592;48.764;9.174;2023-04-03T11:00:47;6.73;;;3.67;;
1204;SDS011;592;48.764;9.174;2023-04-03T11:03:19;4.80;;;3.07;;
1204;SDS011;592;48.764;9.174;2023-04-03T11:05:54;5.83;;;3.57;;
1204;SDS011;592;48.764;9.174;2023-04-03T11:08:24;7.60;;;3.20;;
1204;SDS011;592;48.764;9.174;2023-04-03T11:10:55;5.50;;;3.50;;
1204;SDS011;592;48.764;9.174;2023-04-03T11:13:28;5.43;;;3.13;;
1204;SDS011;592;48.764;9.174;2023-04-03T11:15:59;4.97;;;2.50;;
1204;SDS011;592;48.764;9.174;2023-04-03T11:18:27;6.07;;;3.27;;
1204;SDS011;592;48.764;9.174;2023-04-03T11:21:04;4.53;;;2.70;;
1204;SDS011;592;48.764;9.174;2023-04-03T11:23:35;5.77;;;2.70;;
1204;SDS011;592;48.764;9.174;2023-04-03T11:26:07;6.10;;;2.83;;
1204;SDS011;592;48.764;9.174;2023-04-03T11:28:36;5.07;;;2.90;;
1204;SDS011;592;48.764;9.174;2023-04-03T11:31:07;4.80;;;2.33;;
1204;SDS011;592;48.764;9.174;2023-04-03T11:33:44;5.43;;;2.97;;
1204;SDS011;592;48.764;9.174;2023-04-03T11:36:20;5.30;;;2.90;;
1204;SDS011;592;48.764;9.174;2023-04-03T11:38:51;6.60;;;3.10;;
1204;SDS011;592;48.764;9.174;2023-04-03T11:41:25;6.80;;;2.93;;
1204;SDS011;592;48.764;9.174;2023-04-03T11:43:55;6.13;;;2.97;;
1204;SDS011;592;48.764;9.174;2023-04-03T11:52:27;9.87;;;3.00;;
1204;SDS011;592;48.764;9.174;2023-04-03T11:58:24;4.50;;;2.60;;
1204;SDS011;592;48.764;9.174;2023-04-03T12:00:59;5.53;;;2.80;;
1204;SDS011;592;48.764;9.174;2023-04-03T12:03:54;7.00;;;2.80;;
1204;SDS011;592;48.764;9.174;2023-04-03T12:06:42;5.03;;;2.80;;
1204;SDS011;592;48.764;9.174;2023-04-03T12:09:35;4.60;;;2.40;;
1204;SDS011;592;48.764;9.174;2023-04-03T12:12:30;5.30;;;2.60;;
1204;SDS011;592;48.764;9.174;2023-04-03T12:15:20;4.40;;;2.60;;
1204;SDS011;592;48.764;9.174;2023-04-03T12:21:17;6.10;;;2.80;;
1204;SDS011;592;48.764;9.174;2023-04-03T12:23:56;5.67;;;3.00;;
1204;SDS011;592;48.764;9.174;2023-04-03T12:26:32;5.47;;;2.87;;
1204;SDS011;592;48.764;9.174;2023-04-03T12:29:10;6.70;;;3.13;;
1204;SDS011;592;48.764;9.174;2023-04-03T12:31:45;4.63;;;2.60;;
1204;SDS011;592;48.764;9.174;2023-04-03T12:34:26;7.23;;;3.03;;
1204;SDS011;592;48.764;9.174;2023-04-03T12:37:07;5.90;;;3.03;;
1204;SDS011;592;48.764;9.174;2023-04-03T12:39:44;5.40;;;2.77;;
1204;SDS011;592;48.764;9.174;2023-04-03T12:42:24;10.20;;;3.80;;
1204;SDS011;592;48.764;9.174;2023-04-03T12:45:07;5.70;;;3.00;;
1204;SDS011;592;48.764;9.174;2023-04-03T12:47:42;4.70;;;2.53;;
1204;SDS011;592;48.764;9.174;2023-04-03T12:50:17;5.30;;;3.00;;
1204;SDS011;592;48.764;9.174;2023-04-03T12:52:50;6.50;;;2.73;;
1204;SDS011;592;48.764;9.174;2023-04-03T12:55:20;6.73;;;2.57;;
1204;SDS011;592;48.764;9.174;2023-04-03T12:57:49;5.87;;;2.73;;
1204;SDS011;592;48.764;9.174;2023-04-03T13:00:20;6.17;;;2.43;;
1204;SDS011;592;48.764;9.174;2023-04-03T13:02:52;6.60;;;3.23;;
1204;SDS011;592;48.764;9.174;2023-04-03T13:05:19;4.80;;;2.47;;
1204;SDS011;592;48.764;9.174;2023-04-03T13:07:48;8.33;;;3.03;;
1204;SDS011;592;48.764;9.174;2023-04-03T13:10:18;7.73;;;3.10;;
1204;SDS011;592;48.764;9.174;2023-04-03T13:12:46;7.63;;;3.03;;
1204;SDS011;592;48.764;9.174;2023-04-03T13:15:16;6.07;;;3.30;;
1204;SDS011;592;48.764;9.174;2023-04-03T13:17:44;6.63;;;2.80;;
1204;SDS011;592;48.764;9.174;2023-04-03T13:20:14;4.73;;;2.63;;
1204;SDS011;592;48.764;9.174;2023-04-03T13:22:47;5.40;;;2.60;;
1204;SDS011;592;48.764;9.174;2023-04-03T13:25:16;5.50;;;2.70;;
1204;SDS011;592;48.764;9.174;2023-04-03T13:27:45;6.30;;;3.30;;
1204;SDS011;592;48.764;9.174;2023-04-03T13:30:20;6.90;;;2.80;;
1204;SDS011;592;48.764;9.174;2023-04-03T13:32:51;6.70;;;3.30;;
1204;SDS011;592;48.764;9.174;2023-04-03T13:35:25;5.00;;;2.50;;
1204;SDS011;592;48.764;9.174;2023-04-03T13:37:59;6.10;;;3.13;;
1204;SDS011;592;48.764;9.174;2023-04-03T13:40:27;10.03;;;2.73;;
1204;SDS011;592;48.764;9.174;2023-04-03T13:43:04;8.13;;;3.37;;
1204;SDS011;592;48.764;9.174;2023-04-03T13:45:34;8.33;;;2.93;;
1204;SDS011;592;48.764;9.174;2023-04-03T13:48:09;5.70;;;2.87;;
1204;SDS011;592;48.764;9.174;2023-04-03T13:50:53;6.13;;;2.60;;
1204;SDS011;592;48.764;9.174;2023-04-03T13:53:22;4.93;;;3.00;;
1204;SDS011;592;48.764;9.174;2023-04-03T13:55:54;7.83;;;3.00;;
1204;SDS011;592;48.764;9.174;2023-04-03T13:58:26;7.47;;;3.10;;
1204;SDS011;592;48.764;9.174;2023-04-03T14:00:55;6.57;;;2.60;;
1204;SDS011;592;48.764;9.174;2023-04-03T14:03:36;5.70;;;2.90;;
1204;SDS011;592;48.764;9.174;2023-04-03T14:06:08;4.00;;;2.30;;
1204;SDS011;592;48.764;9.174;2023-04-03T14:08:37;6.60;;;3.03;;
1204;SDS011;592;48.764;9.174;2023-04-03T14:11:04;6.30;;;3.00;;
1204;SDS011;592;48.764;9.174;2023-04-03T14:13:31;9.00;;;3.37;;
1204;SDS011;592;48.764;9.174;2023-04-03T14:15:59;4.50;;;2.73;;
1204;SDS011;592;48.764;9.174;2023-04-03T14:18:26;6.33;;;3.10;;
1204;SDS011;592;48.764;9.174;2023-04-03T14:20:53;6.20;;;2.80;;
1204;SDS011;592;48.764;9.174;2023-04-03T14:23:19;5.63;;;2.80;;
1204;SDS011;592;48.764;9.174;2023-04-03T14:25:47;6.17;;;2.83;;
1204;SDS011;592;48.764;9.174;2023-04-03T14:28:15;9.87;;;3.60;;
1204;SDS011;592;48.764;9.174;2023-04-03T14:30:44;6.23;;;3.13;;
1204;SDS011;592;48.764;9.174;2023-04-03T14:33:14;6.37;;;3.33;;
1204;SDS011;592;48.764;9.174;2023-04-03T14:35:43;8.40;;;3.20;;
1204;SDS011;592;48.764;9.174;2023-04-03T14:38:20;7.80;;;3.40;;
1204;SDS011;592;48.764;9.174;2023-04-03T14:40:49;6.47;;;3.10;;
1204;SDS011;592;48.764;9.174;2023-04-03T14:43:17;5.03;;;2.63;;
1204;SDS011;592;48.764;9.174;2023-04-03T14:45:45;5.30;;;2.80;;
1204;SDS011;592;48.764;9.174;2023-04-03T14:48:15;4.80;;;2.50;;
1204;SDS011;592;48.764;9.174;2023-04-03T14:50:45;5.00;;;3.10;;
1204;SDS011;592;48.764;9.174;2023-04-03T14:53:13;5.80;;;2.80;;
1204;SDS011;592;48.764;9.174;2023-04-03T14:55:40;5.13;;;3.00;;
1204;SDS011;592;48.764;9.174;2023-04-03T14:58:11;5.37;;;2.70;;
1204;SDS011;592;48.764;9.174;2023-04-03T15:00:39;5.20;;;3.00;;
1204;SDS011;592;48.764;9.174;2023-04-03T15:03:08;8.90;;;3.50;;
1204;SDS011;592;48.764;9.174;2023-04-03T15:05:41;4.93;;;2.80;;
1204;SDS011;592;48.764;9.174;2023-04-03T15:08:11;5.20;;;2.83;;
1204;SDS011;592;48.764;9.174;2023-04-03T15:10:45;5.80;;;3.00;;
1204;SDS011;592;48.764;9.174;2023-04-03T15:13:12;4.80;;;2.93;;
1204;SDS011;592;48.764;9.174;2023-04-03T15:15:39;4.97;;;3.10;;
1204;SDS011;592;48.764;9.174;2023-04-03T15:18:06;6.20;;;2.83;;
1204;SDS011;592;48.764;9.174;2023-04-03T15:20:41;6.40;;;2.83;;
1204;SDS011;592;48.764;9.174;2023-04-03T15:23:08;7.30;;;2.93;;
1204;SDS011;592;48.764;9.174;2023-04-03T15:25:36;6.20;;;3.47;;
1204;SDS011;592;48.764;9.174;2023-04-03T15:28:03;6.60;;;3.00;;
1204;SDS011;592;48.764;9.174;2023-04-03T15:30:30;6.77;;;2.90;;
1204;SDS011;592;48.764;9.174;2023-04-03T15:32:56;5.43;;;2.93;;
1204;SDS011;592;48.764;9.174;2023-04-03T15:35:23;4.50;;;2.63;;
1204;SDS011;592;48.764;9.174;2023-04-03T15:37:51;5.80;;;2.70;;
1204;SDS011;592;48.764;9.174;2023-04-03T15:40:18;4.90;;;2.80;;
1204;SDS011;592;48.764;9.174;2023-04-03T15:42:45;5.13;;;2.67;;
1204;SDS011;592;48.764;9.174;2023-04-03T15:45:12;4.50;;;2.70;;
1204;SDS011;592;48.764;9.174;2023-04-03T15:47:38;4.13;;;2.80;;
1204;SDS011;592;48.764;9.174;2023-04-03T15:50:06;5.20;;;2.80;;
1204;SDS011;592;48.764;9.174;2023-04-03T15:52:33;5.40;;;2.70;;
1204;SDS011;592;48.764;9.174;2023-04-03T15:55:01;5.73;;;2.67;;
1204;SDS011;592;48.764;9.174;2023-04-03T15:57:28;5.40;;;3.30;;
1204;SDS011;592;48.764;9.174;2023-04-03T15:59:55;7.20;;;3.10;;
1204;SDS011;592;48.764;9.174;2023-04-03T16:02:22;5.27;;;2.87;;